Time;durP1;ratioP1;P1;durP2;ratioP2;P2;SDS_P1;SDS_P2;PMS_P1;PMS_P2;Temp;Humidity;BMP_temperature;BMP_pressure;BME280_temperature;BME280_humidity;BME280_pressure;Samples;Min_cycle;Max_cycle;Signal;HPM_P1;HPM_P2
2022/09/04 00:01:12;;;;;;;;;9.25;9.25;;;;;22.56;53.36;100945.53;4857559;29;45326;-71
2022/09/04 00:03:49;;;;;;;;;10.00;10.00;;;;;22.48;53.24;100947.13;4846113;29;46642;-71
2022/09/04 00:06:24;;;;;;;;;11.25;11.25;;;;;22.47;53.49;100948.09;4855745;29;45442;-71
2022/09/04 00:09:22;;;;;;;;;9.00;9.00;;;;;22.50;53.41;100966.91;4858225;29;45516;-71
2022/09/04 00:12:03;;;;;;;;;7.75;7.75;;;;;22.16;53.73;100907.84;4854092;29;45594;-71
2022/09/04 00:14:31;;;;;;;;;11.25;11.25;;;;;22.46;53.52;100962.72;4851370;29;45533;-71
2022/09/04 00:17:02;;;;;;;;;9.00;9.00;;;;;22.25;53.39;100932.59;4850111;29;45384;-71
2022/09/04 00:19:46;;;;;;;;;9.75;9.75;;;;;22.30;53.64;100944.88;4850703;29;45550;-71
2022/09/04 00:22:49;;;;;;;;;11.50;10.75;;;;;22.42;53.80;100972.09;4862717;29;45463;-71
2022/09/04 00:25:32;;;;;;;;;16.00;10.00;;;;;22.30;53.74;100957.59;4845885;29;46142;-71
2022/09/04 00:28:07;;;;;;;;;11.00;9.75;;;;;22.18;53.83;100941.22;4857506;29;45445;-71
2022/09/04 00:30:40;;;;;;;;;12.00;8.75;;;;;22.35;53.68;100968.97;4854269;29;45377;-71
2022/09/04 00:33:16;;;;;;;;;11.50;11.50;;;;;22.06;53.70;100935.91;4829020;29;45537;-71
2022/09/04 00:35:54;;;;;;;;;12.00;10.50;;;;;22.19;53.91;100959.28;4847784;29;45352;-71
2022/09/04 00:38:41;;;;;;;;;10.75;10.75;;;;;22.34;53.93;100984.44;4845835;29;45435;-71
2022/09/04 00:41:29;;;;;;;;;13.75;13.25;;;;;22.26;53.73;100972.41;4850516;29;45529;-71
2022/09/04 00:44:21;;;;;;;;;12.75;11.50;;;;;22.26;53.98;100984.13;4833766;29;45372;-71
2022/09/04 00:47:19;;;;;;;;;11.00;11.00;;;;;22.29;53.80;100985.81;4865015;29;45597;-71
2022/09/04 00:50:08;;;;;;;;;10.75;10.25;;;;;22.25;53.63;100992.41;4849150;29;45528;-71
2022/09/04 00:53:04;;;;;;;;;10.00;8.00;;;;;22.21;53.59;100989.91;4857828;29;45384;-71
2022/09/04 00:56:00;;;;;;;;;8.00;8.00;;;;;22.18;53.93;100984.72;4858721;29;45636;-71
2022/09/04 00:58:32;;;;;;;;;8.75;8.75;;;;;22.17;53.76;100990.31;4862242;29;46316;-71
2022/09/04 01:00:59;;;;;;;;;6.00;6.00;;;;;21.94;53.47;100962.19;4848953;29;45313;-71
2022/09/04 01:03:39;;;;;;;;;10.00;8.25;;;;;22.11;53.45;100998.94;4848943;29;45516;-71
2022/09/04 01:06:19;;;;;;;;;8.25;6.50;;;;;21.98;53.65;100974.53;4856194;29;45449;-71
2022/09/04 01:09:02;;;;;;;;;9.00;8.25;;;;;22.08;53.78;101008.16;4855921;29;45679;-71
2022/09/04 01:11:38;;;;;;;;;8.00;8.00;;;;;21.99;53.36;100992.59;4833569;29;45581;-71
2022/09/04 01:14:25;;;;;;;;;8.75;8.25;;;;;21.92;53.43;101000.34;4857627;29;45394;-71
2022/09/04 01:17:28;;;;;;;;;6.25;6.25;;;;;22.02;53.25;101014.94;4850743;29;45376;-71
2022/09/04 01:20:12;;;;;;;;;9.25;8.00;;;;;21.74;53.69;100978.13;4861590;29;45328;-71
2022/09/04 01:23:03;;;;;;;;;9.00;8.00;;;;;21.98;53.68;101008.00;4859591;29;45272;-71
2022/09/04 01:25:28;;;;;;;;;8.25;8.25;;;;;21.92;53.28;101010.31;4831803;29;45597;-71
2022/09/04 01:28:05;;;;;;;;;9.50;9.50;;;;;21.81;53.21;101005.72;4858471;29;45442;-71
2022/09/04 01:30:44;;;;;;;;;8.00;8.00;;;;;21.66;53.09;100983.28;4866777;29;45473;-71
2022/09/04 01:33:23;;;;;;;;;5.25;5.25;;;;;21.92;53.14;101024.78;4861658;29;45503;-71
2022/09/04 01:36:06;;;;;;;;;10.75;9.75;;;;;21.92;52.60;101023.91;4849760;29;45391;-71
2022/09/04 01:38:55;;;;;;;;;7.25;6.75;;;;;21.82;53.05;101012.91;4843266;29;45529;-71
2022/09/04 01:41:44;;;;;;;;;7.25;7.25;;;;;21.88;52.46;101026.00;4865622;29;45550;-71
2022/09/04 01:44:11;;;;;;;;;9.00;8.00;;;;;21.71;52.90;101002.81;4851094;29;45934;-71
2022/09/04 01:46:46;;;;;;;;;8.75;8.75;;;;;21.63;52.91;100999.81;4847873;29;45636;-71
2022/09/04 01:49:35;;;;;;;;;10.00;7.75;;;;;21.86;52.83;101027.09;4833466;29;45492;-71
2022/09/04 01:52:03;;;;;;;;;6.00;6.00;;;;;21.84;53.08;101025.38;4852569;29;46405;-71
2022/09/04 01:54:52;;;;;;;;;6.50;6.25;;;;;21.80;52.88;101028.41;4874039;29;45480;-71
2022/09/04 01:57:39;;;;;;;;;7.00;7.00;;;;;21.77;53.24;101032.25;4856836;29;45485;-71
2022/09/04 02:00:11;;;;;;;;;6.50;5.75;;;;;21.74;53.16;101037.06;4856601;29;45308;-71
2022/09/04 02:02:48;;;;;;;;;3.25;3.25;;;;;21.52;52.34;101008.78;4848055;29;45568;-71
2022/09/04 02:05:17;;;;;;;;;4.25;4.25;;;;;21.52;53.08;101010.59;4847833;29;45583;-71
2022/09/04 02:08:22;;;;;;;;;7.00;7.00;;;;;21.68;53.22;101042.94;4844088;29;45529;-71
2022/09/04 02:11:18;;;;;;;;;7.25;6.00;;;;;21.64;52.90;101045.03;4843747;29;45368;-71
2022/09/04 02:14:07;;;;;;;;;5.75;5.75;;;;;21.63;53.06;101048.69;4865143;29;46434;-71
2022/09/04 02:16:55;;;;;;;;;6.75;6.75;;;;;21.37;52.97;101007.16;4847656;29;45367;-71
2022/09/04 02:19:33;;;;;;;;;7.25;6.75;;;;;21.62;53.07;101047.00;4833440;29;45384;-71
2022/09/04 02:22:27;;;;;;;;;6.25;5.00;;;;;21.41;52.82;101017.66;4866189;29;45347;-71
2022/09/04 02:25:01;;;;;;;;;9.00;8.25;;;;;21.59;52.51;101058.94;4832895;29;48325;-71
2022/09/04 02:27:29;;;;;;;;;6.75;6.75;;;;;21.59;52.55;101052.66;4847610;29;45469;-71
2022/09/04 02:30:01;;;;;;;;;6.00;6.00;;;;;21.55;52.87;101054.72;4857572;29;45388;-71
2022/09/04 02:32:41;;;;;;;;;7.50;6.00;;;;;21.23;53.06;101019.91;4854007;29;45402;-71
2022/09/04 02:35:37;;;;;;;;;6.00;6.00;;;;;21.49;53.21;101065.16;4855224;29;45560;-71
2022/09/04 02:38:28;;;;;;;;;7.25;7.00;;;;;21.36;53.33;101057.88;4852228;29;45547;-71
2022/09/04 02:41:16;;;;;;;;;8.00;7.00;;;;;21.36;53.13;101057.88;4843633;29;45381;-71
2022/09/04 02:44:16;;;;;;;;;6.25;6.00;;;;;21.39;52.76;101068.50;4857282;29;45606;-71
2022/09/04 02:47:11;;;;;;;;;7.75;7.25;;;;;21.36;52.93;101071.44;4857153;29;45451;-71
2022/09/04 02:50:08;;;;;;;;;6.00;6.00;;;;;21.34;53.37;101072.56;4850995;29;45423;-71
2022/09/04 02:53:19;;;;;;;;;7.50;6.25;;;;;21.32;53.21;101079.91;4839296;29;45320;-71
2022/09/04 02:56:00;;;;;;;;;5.50;5.00;;;;;21.23;52.63;101067.88;4871541;29;45464;-71
2022/09/04 02:58:48;;;;;;;;;6.50;6.50;;;;;21.25;53.38;101074.06;4857689;29;45532;-71
2022/09/04 03:01:36;;;;;;;;;7.25;7.25;;;;;21.26;53.27;101086.66;4863131;29;45565;-71
2022/09/04 03:04:11;;;;;;;;;6.75;6.75;;;;;21.18;52.98;101072.78;4847389;29;45553;-71
2022/09/04 03:07:03;;;;;;;;;5.00;5.00;;;;;21.20;53.03;101078.97;4859422;29;45396;-71
2022/09/04 03:09:43;;;;;;;;;9.75;8.25;;;;;20.90;53.55;101039.50;4849152;29;46563;-71
2022/09/04 03:12:28;;;;;;;;;5.50;5.50;;;;;21.14;53.25;101079.41;4865436;29;45335;-71
2022/09/04 03:15:06;;;;;;;;;8.00;7.75;;;;;21.14;53.29;101079.41;4852652;29;45275;-71
2022/09/04 03:17:56;;;;;;;;;7.00;7.00;;;;;20.89;53.77;101043.16;4846808;29;45625;-71
2022/09/04 03:20:26;;;;;;;;;7.75;7.75;;;;;20.90;53.45;101058.47;4850624;29;45396;-71
2022/09/04 03:23:08;;;;;;;;;5.75;5.75;;;;;20.85;53.48;101049.81;4864498;29;45714;-71
2022/09/04 03:26:01;;;;;;;;;6.00;6.00;;;;;20.90;53.17;101064.78;4846839;29;45261;-71
2022/09/04 03:28:33;;;;;;;;;9.75;9.25;;;;;21.02;53.52;101087.44;4836621;29;45499;-71
2022/09/04 03:31:05;;;;;;;;;6.00;6.00;;;;;20.77;54.02;101047.63;4861458;29;45477;-71
2022/09/04 03:33:43;;;;;;;;;8.00;8.00;;;;;20.79;53.86;101058.38;4846758;29;45407;-71
2022/09/04 03:36:17;;;;;;;;;8.75;8.75;;;;;20.87;53.97;101083.13;4851405;29;45674;-71
2022/09/04 03:39:01;;;;;;;;;6.75;6.25;;;;;20.62;53.77;101044.09;4837840;29;45397;-71
2022/09/04 03:42:05;;;;;;;;;6.00;6.00;;;;;20.71;53.81;101046.22;4843526;29;47480;-71
2022/09/04 03:44:46;;;;;;;;;8.00;7.00;;;;;20.92;53.97;101089.09;4848803;29;45964;-71
2022/09/04 03:47:39;;;;;;;;;7.00;7.00;;;;;20.83;53.82;101076.16;4859690;29;45273;-71
2022/09/04 03:50:31;;;;;;;;;8.25;7.50;;;;;20.82;53.95;101075.28;4857059;29;45441;-71
2022/09/04 03:53:18;;;;;;;;;5.00;4.25;;;;;20.66;53.79;101059.22;4864102;29;46212;-71
2022/09/04 03:56:11;;;;;;;;;8.00;8.00;;;;;20.69;53.82;101059.00;4861772;29;45538;-71
2022/09/04 03:58:49;;;;;;;;;8.75;7.00;;;;;20.86;53.70;101095.78;4853447;29;45548;-71
2022/09/04 04:01:29;;;;;;;;;7.00;6.00;;;;;20.64;53.73;101058.44;4855339;29;45416;-71
2022/09/04 04:04:19;;;;;;;;;5.00;5.00;;;;;20.83;53.74;101098.75;4846498;29;45408;-71
2022/09/04 04:06:58;;;;;;;;;6.25;6.25;;;;;20.60;53.85;101054.19;4839414;29;45642;-71
2022/09/04 04:09:47;;;;;;;;;6.00;6.00;;;;;20.73;53.74;101086.78;4839773;29;45458;-71
2022/09/04 04:12:41;;;;;;;;;6.00;6.00;;;;;20.82;53.63;101099.72;4853764;29;45387;-71
2022/09/04 04:15:09;;;;;;;;;10.75;7.75;;;;;20.82;53.99;101101.56;4846157;29;46600;-71
2022/09/04 04:17:47;;;;;;;;;6.00;6.00;;;;;20.81;53.80;101097.97;4829380;29;45398;-71
2022/09/04 04:20:43;;;;;;;;;8.25;7.00;;;;;20.82;53.66;101107.00;4859660;29;45612;-71
2022/09/04 04:24:01;;;;;;;;;7.50;6.00;;;;;20.61;54.23;101072.19;4851761;29;45333;-71
2022/09/04 04:26:51;;;;;;;;;7.75;6.75;;;;;20.82;53.97;101105.13;4788398;29;46548;-71
2022/09/04 04:29:42;;;;;;;;;5.00;4.00;;;;;20.77;53.47;101096.44;4836807;29;45318;-71
2022/09/04 04:32:15;;;;;;;;;4.25;4.25;;;;;20.62;53.66;101081.22;4818088;29;45446;-71
2022/09/04 04:34:56;;;;;;;;;6.25;6.00;;;;;20.76;53.62;101108.25;4846014;29;45577;-71
2022/09/04 04:37:50;;;;;;;;;6.25;6.25;;;;;20.41;53.44;101053.72;4859801;29;45284;-71
2022/09/04 04:40:34;;;;;;;;;5.50;5.50;;;;;20.74;53.57;101107.50;4861638;29;45613;-71
2022/09/04 04:43:18;;;;;;;;;6.25;6.25;;;;;20.73;53.60;101113.91;4862315;29;45583;-71
2022/09/04 04:45:55;;;;;;;;;5.50;4.00;;;;;20.66;53.32;101108.03;4854883;29;45489;-71
2022/09/04 04:48:36;;;;;;;;;1.00;1.00;;;;;20.71;53.48;101121.28;4853501;29;45505;-71
2022/09/04 04:51:14;;;;;;;;;5.50;4.00;;;;;20.69;53.41;101124.09;4859884;29;45511;-70
2022/09/04 04:53:52;;;;;;;;;5.00;5.00;;;;;20.51;53.48;101095.50;4847874;29;45419;-71
2022/09/04 04:56:30;;;;;;;;;5.00;4.25;;;;;20.49;53.86;101103.75;4845562;29;45359;-71
2022/09/04 04:59:24;;;;;;;;;6.25;6.25;;;;;20.50;53.84;101101.91;4834947;29;46616;-71
2022/09/04 05:02:07;;;;;;;;;2.50;2.50;;;;;20.66;53.55;101137.00;4863182;29;45350;-71
2022/09/04 05:04:53;;;;;;;;;4.00;3.75;;;;;20.64;53.45;101147.97;4844328;29;45378;-71
2022/09/04 05:07:39;;;;;;;;;5.50;4.50;;;;;20.62;53.54;101143.59;4853155;29;45254;-71
2022/09/04 05:10:36;;;;;;;;;5.75;5.75;;;;;20.60;53.61;101141.00;4859055;29;45413;-71
2022/09/04 05:13:45;;;;;;;;;7.25;4.50;;;;;20.45;53.20;101121.22;4784877;29;45611;-71
2022/09/04 05:16:19;;;;;;;;;6.50;6.00;;;;;20.57;53.66;101146.63;4828229;29;45625;-71
2022/09/04 05:19:00;;;;;;;;;5.75;4.75;;;;;20.55;53.54;101145.84;4848810;29;45466;-71
2022/09/04 05:21:43;;;;;;;;;6.00;5.00;;;;;20.41;53.56;101122.38;4856028;29;45529;-71
2022/09/04 05:24:33;;;;;;;;;4.00;4.00;;;;;20.56;53.44;101161.13;4848694;29;45605;-71
2022/09/04 05:27:29;;;;;;;;;4.50;4.50;;;;;20.56;53.72;101169.28;4848773;29;45604;-71
2022/09/04 05:30:03;;;;;;;;;3.25;3.25;;;;;20.30;53.77;101128.53;4857825;29;45466;-71
2022/09/04 05:32:34;;;;;;;;;6.50;4.50;;;;;20.55;53.71;101164.84;4866026;29;45486;-71
2022/09/04 05:35:25;;;;;;;;;5.25;4.00;;;;;20.54;53.77;101180.22;4842622;29;45412;-71
2022/09/04 05:37:57;;;;;;;;;5.25;5.25;;;;;20.55;53.73;101184.69;4861611;29;45542;-73
2022/09/04 05:40:38;;;;;;;;;4.75;4.75;;;;;20.55;54.05;101183.81;4865346;29;45433;-71
2022/09/04 05:43:22;;;;;;;;;5.25;5.25;;;;;20.52;53.76;101186.75;4848387;29;45350;-71
2022/09/04 05:46:18;;;;;;;;;6.00;6.00;;;;;20.35;53.84;101164.34;4848056;29;45460;-71
2022/09/04 05:49:07;;;;;;;;;5.75;5.75;;;;;20.52;53.78;101189.44;4859229;29;45344;-71
2022/09/04 05:52:02;;;;;;;;;6.50;5.00;;;;;20.30;53.88;101165.63;4847935;29;46216;-71
2022/09/04 05:54:36;;;;;;;;;7.00;6.00;;;;;20.52;54.28;101197.59;4854046;29;46641;-71
2022/09/04 05:57:13;;;;;;;;;6.00;5.75;;;;;20.19;53.88;101155.47;4867405;29;45596;-71
2022/09/04 06:00:00;;;;;;;;;6.50;5.00;;;;;20.52;54.08;101213.84;4877199;29;45510;-71
2022/09/04 06:02:59;;;;;;;;;5.50;5.25;;;;;20.49;53.99;101212.19;4880481;29;45343;-71
2022/09/04 06:05:36;;;;;;;;;6.00;6.00;;;;;20.49;54.24;101211.34;4866436;29;46489;-71
2022/09/04 06:08:13;;;;;;;;;6.00;6.00;;;;;20.48;54.12;101213.19;4880344;29;45449;-71
2022/09/04 06:11:19;;;;;;;;;6.00;5.75;;;;;20.48;54.24;101215.00;4866656;29;45390;-71
2022/09/04 06:14:04;;;;;;;;;8.00;7.75;;;;;20.44;54.19;101208.06;4866702;29;46508;-71
2022/09/04 06:16:48;;;;;;;;;7.00;5.25;;;;;20.46;54.39;101222.38;4868578;29;46631;-71
2022/09/04 06:19:40;;;;;;;;;5.00;4.50;;;;;20.24;54.35;101190.41;4874916;29;45427;-71
2022/09/04 06:22:35;;;;;;;;;7.75;6.00;;;;;20.22;54.67;101185.09;4875217;29;45455;-71
2022/09/04 06:25:13;;;;;;;;;7.25;6.50;;;;;20.41;54.37;101217.25;4865990;29;45352;-71
2022/09/04 06:27:38;;;;;;;;;5.75;4.50;;;;;20.34;54.59;101211.38;4875723;29;45602;-71
2022/09/04 06:30:10;;;;;;;;;6.00;6.00;;;;;20.39;54.54;101215.66;4884126;29;45716;-72
2022/09/04 08:40:40;;;;;;;;;8.75;8.25;;;;;21.80;53.31;101314.63;4785791;29;45610;-74
2022/09/04 08:43:56;;;;;;;;;6.75;6.75;;;;;21.84;53.04;101318.84;4793070;29;45626;-71
2022/09/04 08:46:51;;;;;;;;;8.00;6.00;;;;;21.92;54.01;101309.28;4861410;29;45407;-72
2022/09/04 08:49:23;;;;;;;;;7.75;7.00;;;;;21.98;52.94;101314.28;4883875;29;45307;-72
2022/09/04 08:52:17;;;;;;;;;7.50;6.50;;;;;22.03;51.92;101317.53;4883428;29;45502;-72
2022/09/04 08:55:00;;;;;;;;;3.00;3.00;;;;;22.06;52.64;101317.31;4882862;29;45951;-72
2022/09/04 08:58:01;;;;;;;;;5.00;5.00;;;;;22.11;51.66;101326.00;4876930;29;45669;-71
2022/09/04 09:00:50;;;;;;;;;4.00;4.00;;;;;22.16;51.54;101331.13;4885792;29;45663;-72
2022/09/04 09:03:43;;;;;;;;;4.75;4.50;;;;;22.23;51.40;101326.13;4879315;29;45755;-72
2022/09/04 09:06:24;;;;;;;;;9.00;6.75;;;;;22.28;50.86;101329.38;4886489;29;46571;-72
2022/09/04 09:09:07;;;;;;;;;9.00;7.50;;;;;22.31;51.22;101327.31;4901088;29;45543;-72
2022/09/04 09:12:09;;;;;;;;;7.50;6.50;;;;;22.36;51.46;101329.72;4886851;29;45504;-72
2022/09/04 09:14:40;;;;;;;;;6.00;5.25;;;;;22.42;50.99;101339.25;4892215;29;45310;-72
2022/09/04 09:17:26;;;;;;;;;5.75;5.75;;;;;22.23;52.01;101294.34;4886034;29;46170;-72
2022/09/04 09:20:23;;;;;;;;;7.00;7.00;;;;;22.55;51.68;101342.81;4891930;29;45576;-72
2022/09/04 09:23:13;;;;;;;;;8.25;8.00;;;;;22.62;51.81;101327.81;4898207;28;45447;-72
2022/09/04 09:25:51;;;;;;;;;4.25;4.25;;;;;22.41;51.22;101294.88;4885458;29;45426;-72
2022/09/04 09:28:50;;;;;;;;;4.75;4.75;;;;;22.67;50.00;101322.00;4896251;29;45472;-72
2022/09/04 10:10:10;;;;;;;;;;;;;;;;;;;;;
2022/09/04 10:16:34;;;;;;;;;3.00;3.00;;;;;23.72;47.23;101314.03;4864816;29;45860;-70
2022/09/04 10:22:43;;;;;;;;;5.50;4.00;;;;;23.72;46.83;101300.41;4880094;29;45694;-70
2022/09/04 10:33:03;;;;;;;;;5.25;4.25;;;;;23.85;47.41;101303.94;4874279;29;46988;-70
2022/09/04 10:46:37;;;;;;;;;;;;;;;;;;;;;
2022/09/04 10:49:50;;;;;;;;;;;;;;;;;;;;;
2022/09/04 10:53:23;;;;;;;;;3.00;3.00;;;;;24.10;46.77;101277.44;4876085;29;68705;-70
2022/09/04 11:16:46;;;;;;;;;;;;;;;;;;;;;
2022/09/04 11:23:12;;;;;;;;;;;;;;;;;;;;;
2022/09/04 11:26:42;;;;;;;;;;;;;;;;;;;;;
2022/09/04 11:30:08;;;;;;;;;;;;;;;;;;;;;
2022/09/04 11:33:01;;;;;;;;;;;;;;;;;;;;;
2022/09/04 11:35:54;;;;;;;;;3.00;3.00;;;;;25.12;44.14;101267.13;4860524;29;75800;-70
2022/09/04 11:45:31;;;;;;;;;;;;;;;;;;;;;
2022/09/04 11:48:28;;;;;;;;;3.50;3.50;;;;;25.19;44.53;101241.00;4908519;28;75163;-73
2022/09/04 11:58:01;;;;;;;;;3.75;3.00;;;;;25.42;43.49;101254.59;4896038;28;45516;-70
2022/09/04 12:01:28;;;;;;;;;;;;;;;;;;;;;
2022/09/04 12:04:09;;;;;;;;;;;;;;;;;;;;;
2022/09/04 12:11:17;;;;;;;;;5.25;4.00;;;;;25.55;43.94;101232.53;4908657;28;46051;-72
2022/09/04 12:14:34;;;;;;;;;3.00;3.00;;;;;25.72;43.50;101245.56;4852413;29;46184;-71
2022/09/04 12:17:16;;;;;;;;;3.50;3.50;;;;;25.72;43.71;101239.22;4845690;29;45950;-71
2022/09/04 12:27:54;;;;;;;;;4.50;4.50;;;;;25.96;42.98;101237.06;4840214;29;45926;-71
2022/09/04 12:31:03;;;;;;;;;3.25;3.25;;;;;25.98;43.16;101226.84;4835470;29;45791;-72
2022/09/04 12:33:46;;;;;;;;;3.50;3.50;;;;;25.98;42.61;101224.13;4872045;29;45622;-74
2022/09/04 12:36:36;;;;;;;;;3.75;3.25;;;;;25.87;42.71;101205.88;4898335;29;45495;-76
2022/09/04 12:39:47;;;;;;;;;3.00;3.00;;;;;25.86;42.56;101197.81;4907454;28;45498;-76
2022/09/04 12:42:13;;;;;;;;;3.50;3.50;;;;;26.10;43.03;101227.59;4902223;28;45434;-74
2022/09/04 12:44:57;;;;;;;;;3.50;3.50;;;;;26.16;42.45;101234.38;4920432;28;45582;-73
2022/09/04 12:47:34;;;;;;;;;5.25;5.25;;;;;26.22;42.46;101231.94;4921191;28;45398;-73
2022/09/04 12:50:02;;;;;;;;;4.75;3.50;;;;;26.24;42.21;101232.69;4919620;28;45565;-74
2022/09/04 12:52:49;;;;;;;;;6.50;5.25;;;;;26.27;42.04;101233.41;4912571;28;45680;-73
2022/09/04 12:55:29;;;;;;;;;4.25;4.25;;;;;26.26;42.77;101207.91;4919045;28;45373;-74
2022/09/04 12:58:16;;;;;;;;;3.75;3.75;;;;;26.38;42.67;101225.94;4899225;29;45526;-74
2022/09/04 13:01:12;;;;;;;;;6.00;4.00;;;;;26.15;42.03;101187.00;4914684;28;45514;-73
2022/09/04 13:03:49;;;;;;;;;5.00;5.00;;;;;26.21;41.91;101188.31;4927071;28;45749;-74
2022/09/04 13:06:36;;;;;;;;;3.25;3.25;;;;;26.51;41.61;101220.19;4925692;28;45496;-74
2022/09/04 13:09:08;;;;;;;;;4.50;4.50;;;;;26.55;42.14;101229.00;4909683;28;45434;-74
2022/09/04 13:11:53;;;;;;;;;4.50;4.50;;;;;26.56;41.29;101217.91;4924221;28;46185;-73
2022/09/04 13:14:39;;;;;;;;;4.25;4.25;;;;;26.39;41.56;101186.63;4927024;28;45328;-74
2022/09/04 13:17:35;;;;;;;;;4.00;4.00;;;;;26.58;41.94;101215.91;4912394;28;45606;-73
2022/09/04 13:20:04;;;;;;;;;5.00;5.00;;;;;26.62;41.47;101222.81;4926884;28;45319;-74
2022/09/04 13:22:52;;;;;;;;;3.75;3.00;;;;;26.65;41.48;101208.00;4916742;28;45522;-74
2022/09/04 13:25:34;;;;;;;;;3.50;3.00;;;;;26.52;41.61;101180.00;4914953;28;45380;-74
2022/09/04 13:28:14;;;;;;;;;5.00;5.00;;;;;26.71;41.69;101196.47;4919957;28;45494;-73
2022/09/04 13:31:13;;;;;;;;;4.00;4.00;;;;;26.72;41.65;101187.25;4921129;28;45714;-74
2022/09/04 13:33:50;;;;;;;;;5.00;5.00;;;;;26.81;41.89;101207.41;4926712;28;46103;-73
2022/09/04 13:36:24;;;;;;;;;5.75;4.75;;;;;26.86;41.12;101196.03;4922768;28;45720;-73
2022/09/04 13:39:01;;;;;;;;;3.75;3.75;;;;;26.89;41.08;101190.28;4927113;28;45459;-74
2022/09/04 13:42:12;;;;;;;;;3.50;3.50;;;;;26.92;41.03;101188.09;4914919;28;45715;-74
2022/09/04 13:45:09;;;;;;;;;4.00;3.00;;;;;26.85;40.92;101172.38;4909124;28;45540;-73
2022/09/04 13:47:53;;;;;;;;;4.00;4.00;;;;;26.74;41.04;101140.56;4920694;28;45500;-74
2022/09/04 13:50:36;;;;;;;;;3.00;3.00;;;;;26.98;41.42;101181.16;4910811;28;45570;-73
2022/09/04 13:53:09;;;;;;;;;4.75;3.75;;;;;27.02;40.69;101168.06;4914987;28;45318;-73
2022/09/04 13:55:44;;;;;;;;;2.75;2.75;;;;;27.04;40.73;101168.78;4922530;28;45422;-74
2022/09/04 13:58:17;;;;;;;;;4.00;4.00;;;;;26.96;40.45;101153.06;4905408;28;45346;-74
2022/09/04 14:00:49;;;;;;;;;5.00;4.25;;;;;27.09;40.16;101164.56;4917130;28;45400;-74
2022/09/04 14:03:40;;;;;;;;;3.00;3.00;;;;;27.11;40.29;101165.28;4919234;28;45534;-73
2022/09/04 14:06:13;;;;;;;;;4.00;4.00;;;;;27.01;39.97;101137.03;4921447;28;45444;-73
2022/09/04 14:08:41;;;;;;;;;4.00;4.00;;;;;27.07;39.47;101149.31;4921662;28;45369;-73
2022/09/04 14:11:25;;;;;;;;;2.50;2.50;;;;;27.20;39.74;101162.66;4911236;28;45429;-73
2022/09/04 14:13:56;;;;;;;;;4.50;4.50;;;;;27.22;39.21;101166.16;4912267;28;45739;-74
2022/09/04 14:16:22;;;;;;;;;3.75;3.75;;;;;27.03;39.57;101128.69;4910599;28;45371;-72
2022/09/04 14:19:16;;;;;;;;;3.75;3.00;;;;;27.26;39.08;101151.97;4911250;28;45631;-73
2022/09/04 14:22:03;;;;;;;;;5.50;4.50;;;;;27.24;39.33;101145.78;4916655;28;45476;-74
2022/09/04 14:25:03;;;;;;;;;3.00;3.00;;;;;27.26;39.50;101146.50;4913897;28;45913;-72
2022/09/04 14:27:46;;;;;;;;;3.75;3.75;;;;;27.24;39.15;101134.81;4908851;28;45734;-74
2022/09/04 14:30:15;;;;;;;;;3.00;3.00;;;;;27.20;38.91;101127.03;4915968;28;46364;-72
2022/09/04 14:32:48;;;;;;;;;2.75;2.50;;;;;27.35;38.39;101148.38;4920907;28;45473;-73
2022/09/04 14:49:40;;;;;;;;;3.00;3.00;;;;;27.48;37.70;101125.25;4753370;29;45573;-80
2022/09/04 16:22:18;;;;;;;;;;;;;;;;;;;;;
2022/09/04 16:25:05;;;;;;;;;;;;;;;;;;;;;
2022/09/04 16:39:22;;;;;;;;;5.25;4.75;;;;;27.85;35.50;101031.06;4754378;29;45571;-73
2022/09/04 16:48:55;;;;;;;;;4.25;1.25;;;;;27.85;35.21;101042.03;4695679;30;45682;-77
2022/09/04 16:51:29;;;;;;;;;1.50;1.50;;;;;27.94;35.59;101054.88;4755070;29;45856;-78
2022/09/04 16:57:58;;;;;;;;;;;;;;;;;;;;;
2022/09/04 17:01:23;;;;;;;;;;;;;;;;;;;;;
2022/09/04 17:11:50;;;;;;;;;;;;;;;;;;;;;
2022/09/04 17:15:27;;;;;;;;;1.25;1.25;;;;;28.10;35.16;101078.88;4848839;29;75755;-74
2022/09/04 17:17:46;;;;;;;;;0.75;0.75;;;;;28.08;35.14;101075.41;4885396;29;45458;-75
2022/09/04 17:20:21;;;;;;;;;4.25;3.25;;;;;28.06;35.26;101072.81;4883399;29;45547;-74
2022/09/04 17:23:25;;;;;;;;;2.25;2.25;;;;;28.03;35.22;101072.28;4869920;29;45679;-74
2022/09/04 17:25:59;;;;;;;;;1.75;1.75;;;;;28.04;35.06;101079.50;4887696;28;45473;-74
2022/09/04 17:28:36;;;;;;;;;3.75;2.00;;;;;27.99;34.97;101076.38;4896806;29;45511;-73
2022/09/04 17:31:14;;;;;;;;;3.00;3.00;;;;;28.02;35.21;101090.63;4894175;28;45592;-74
2022/09/04 17:37:34;;;;;;;;;;;;;;;;;;;;;
2022/09/04 17:41:05;;;;;;;;;;;;;;;;;;;;;
2022/09/04 17:47:33;;;;;;;;;;;;;;;;;;;;;
2022/09/04 18:03:49;;;;;;;;;3.25;3.25;;;;;27.87;34.84;101081.19;4844046;29;46214;-73
2022/09/04 18:06:50;;;;;;;;;;;;;;;;;;;;;
2022/09/04 18:13:36;;;;;;;;;4.75;4.75;;;;;27.51;35.71;101029.00;4892914;29;45572;-74
2022/09/04 18:16:24;;;;;;;;;5.75;4.00;;;;;27.79;34.98;101087.41;4818597;29;45869;-75
2022/09/04 18:19:26;;;;;;;;;4.50;4.50;;;;;27.73;35.08;101071.56;4893258;29;45706;-74
2022/09/04 18:22:00;;;;;;;;;3.00;3.00;;;;;27.62;35.52;101060.84;4872733;29;45782;-73
2022/09/04 18:24:34;;;;;;;;;3.50;3.50;;;;;27.66;35.37;101075.97;4889786;29;45462;-73
2022/09/04 18:27:24;;;;;;;;;4.75;3.75;;;;;27.65;35.10;101076.97;4885498;29;46618;-74
2022/09/04 18:30:09;;;;;;;;;5.00;4.00;;;;;27.63;35.45;101079.00;4882492;29;45452;-72
2022/09/04 18:33:09;;;;;;;;;3.25;3.25;;;;;27.63;35.00;101084.47;4890087;29;46049;-72
2022/09/04 18:35:51;;;;;;;;;4.00;4.00;;;;;27.47;34.61;101061.34;4892695;29;45799;-72
2022/09/04 18:38:40;;;;;;;;;3.00;3.00;;;;;27.58;34.76;101087.69;4884810;29;46275;-73
2022/09/04 18:41:17;;;;;;;;;4.00;2.75;;;;;27.41;34.69;101053.72;4890034;29;45507;-68
2022/09/04 18:43:51;;;;;;;;;3.75;3.75;;;;;27.56;35.30;101086.97;4892199;28;46307;-72
2022/09/04 18:46:24;;;;;;;;;5.00;4.75;;;;;27.52;35.62;101080.94;4878517;29;45591;-73
2022/09/04 18:52:57;;;;;;;;;;;;;;;;;;;;;
2022/09/04 19:08:36;;;;;;;;;5.25;5.25;;;;;27.04;35.41;101054.56;1235206;26;46207;-83
2022/09/04 19:11:16;;;;;;;;;3.75;3.25;;;;;27.17;35.25;101070.69;4881904;29;45584;-82
2022/09/04 19:14:38;;;;;;;;;4.25;3.25;;;;;27.30;35.60;101095.06;4890803;29;46456;-74
2022/09/04 19:21:34;;;;;;;;;7.00;5.00;;;;;27.24;35.53;101098.34;4805429;29;45476;-74
2022/09/04 19:24:15;;;;;;;;;4.50;4.25;;;;;27.13;35.75;101097.53;4836959;29;45549;-83
2022/09/04 19:27:10;;;;;;;;;5.00;5.00;;;;;27.06;35.88;101084.56;4875126;29;46980;-80
2022/09/04 19:29:48;;;;;;;;;6.00;6.00;;;;;26.82;35.56;101064.00;4838464;29;46003;-84
2022/09/04 19:32:47;;;;;;;;;4.75;4.50;;;;;27.11;35.36;101110.47;4873992;29;45802;-83
2022/09/04 19:35:24;;;;;;;;;3.75;3.25;;;;;26.83;35.85;101067.59;4867934;29;45485;-80
2022/09/04 19:37:59;;;;;;;;;8.25;7.00;;;;;26.83;35.66;101073.97;4877758;29;46638;-82
2022/09/04 19:40:32;;;;;;;;;5.00;5.00;;;;;26.70;35.50;101057.84;4870586;29;45527;-82
2022/09/04 19:43:16;;;;;;;;;5.50;5.50;;;;;26.77;35.87;101078.13;4862422;29;47246;-79
2022/09/04 19:45:44;;;;;;;;;6.75;6.00;;;;;26.97;35.63;101113.72;4882535;29;45620;-77
2022/09/04 19:48:30;;;;;;;;;5.50;5.50;;;;;26.94;35.68;101120.34;4862151;29;47756;-76
2022/09/04 19:50:59;;;;;;;;;4.00;4.00;;;;;26.76;35.65;101087.38;4878854;29;45851;-73
2022/09/04 19:53:44;;;;;;;;;5.75;5.75;;;;;26.87;35.60;101113.72;4862810;29;45544;-75
2022/09/04 19:56:24;;;;;;;;;6.00;5.00;;;;;26.55;36.08;101068.34;4875691;29;45492;-76
2022/09/04 19:59:10;;;;;;;;;2.75;2.75;;;;;26.53;36.20;101072.22;4863264;29;47776;-77
2022/09/04 20:01:53;;;;;;;;;5.00;5.00;;;;;26.77;36.40;101119.22;4872564;29;45518;-80
2022/09/04 20:04:34;;;;;;;;;6.00;6.00;;;;;26.53;36.54;101080.44;4879982;29;45789;-77
2022/09/04 20:07:07;;;;;;;;;3.00;3.00;;;;;26.75;36.84;101121.25;4862589;29;45468;-77
2022/09/04 20:09:44;;;;;;;;;5.00;5.00;;;;;26.55;36.97;101090.25;4878819;29;46678;-78
2022/09/04 20:12:19;;;;;;;;;5.00;5.00;;;;;26.74;37.00;101137.81;4864836;29;45828;-81
2022/09/04 20:14:53;;;;;;;;;7.00;4.75;;;;;26.68;37.08;101132.91;4862524;29;45918;-84
2022/09/04 20:18:01;;;;;;;;;5.00;5.00;;;;;26.68;37.37;101141.13;4879358;29;45511;-81
2022/09/04 20:20:31;;;;;;;;;6.00;6.00;;;;;26.54;37.41;101118.63;4879093;29;45927;-81